Time;durP1;ratioP1;P1;durP2;ratioP2;P2;SDS_P1;SDS_P2;PMS_P1;PMS_P2;Temp;Humidity;BMP_temperature;BMP_pressure;BME280_temperature;BME280_humidity;BME280_pressure;Samples;Min_cycle;Max_cycle;Signal;HPM_P1;HPM_P2
2021/10/13 00:00:39;;;;;;;15.83;11.77;;;6.50;99.90;;;5.18;100.00;98200.88;5027808;28;20486;-70
2021/10/13 00:03:05;;;;;;;16.57;14.00;;;6.50;99.90;;;5.09;100.00;98194.75;5031300;28;20549;-70
2021/10/13 00:05:32;;;;;;;17.83;14.27;;;6.50;99.90;;;5.18;100.00;98200.03;5027777;28;20933;-70
2021/10/13 00:07:59;;;;;;;17.70;14.07;;;6.50;99.90;;;5.31;100.00;98197.63;5029823;28;20454;-70
2021/10/13 00:10:26;;;;;;;16.93;12.93;;;6.60;99.90;;;5.19;100.00;98204.38;5028733;28;20553;-70
2021/10/13 00:12:55;;;;;;;22.20;14.90;;;6.60;99.90;;;5.15;100.00;98203.88;5027458;28;20580;-71
2021/10/13 00:15:22;;;;;;;18.63;14.20;;;6.50;99.90;;;5.08;100.00;98208.28;5029644;28;20484;-72
2021/10/13 00:17:49;;;;;;;21.00;14.70;;;6.50;99.90;;;5.23;100.00;98211.88;5024097;28;20465;-72
2021/10/13 00:20:16;;;;;;;18.50;14.73;;;6.50;99.90;;;5.21;100.00;98218.41;5031757;28;20468;-72
2021/10/13 00:22:43;;;;;;;19.47;14.53;;;6.60;99.90;;;5.28;100.00;98214.03;5032166;28;20520;-72
2021/10/13 00:25:10;;;;;;;19.20;15.83;;;6.60;99.90;;;5.20;100.00;98217.59;5027978;28;20855;-73
2021/10/13 00:27:37;;;;;;;17.07;13.87;;;6.60;99.90;;;5.34;100.00;98217.88;5026646;28;20462;-71
2021/10/13 00:30:06;;;;;;;16.93;14.37;;;6.60;99.90;;;5.20;100.00;98219.44;5027405;28;20501;-70
2021/10/13 00:32:33;;;;;;;19.00;13.57;;;6.60;99.90;;;5.32;100.00;98212.69;5028207;28;20498;-70
2021/10/13 00:35:00;;;;;;;19.87;14.57;;;6.60;99.90;;;5.41;100.00;98213.44;5024543;28;20569;-71
2021/10/13 00:37:27;;;;;;;19.27;15.10;;;6.70;99.90;;;5.32;100.00;98219.91;5026060;28;20461;-71
2021/10/13 00:39:54;;;;;;;19.93;15.20;;;6.70;99.90;;;5.42;100.00;98227.69;5026001;28;20466;-71
2021/10/13 00:42:21;;;;;;;16.97;12.73;;;6.70;99.90;;;5.17;100.00;98214.44;5030905;28;20492;-70
2021/10/13 00:44:48;;;;;;;17.60;13.00;;;6.70;99.90;;;5.33;100.00;98243.81;5028836;28;20478;-70
2021/10/13 00:47:17;;;;;;;15.40;13.10;;;6.70;99.90;;;5.37;100.00;98239.75;5030338;28;20502;-71
2021/10/13 00:49:44;;;;;;;15.70;13.83;;;6.70;99.90;;;5.45;100.00;98224.66;5029451;28;21042;-71
2021/10/13 00:52:12;;;;;;;17.27;13.10;;;6.80;99.90;;;5.50;100.00;98228.47;5027278;28;20928;-70
2021/10/13 00:54:39;;;;;;;16.13;13.23;;;6.80;99.90;;;5.63;100.00;98222.53;5029535;28;20851;-72
2021/10/13 00:57:07;;;;;;;18.97;15.27;;;6.90;99.90;;;5.58;100.00;98229.41;5025407;28;20535;-72
2021/10/13 00:59:34;;;;;;;18.07;15.10;;;6.90;99.90;;;5.60;100.00;98225.56;5044650;28;20844;-73
2021/10/13 01:02:09;;;;;;;17.00;12.70;;;6.90;99.90;;;5.58;100.00;98232.94;5030459;28;20885;-71
2021/10/13 01:04:51;;;;;;;17.07;13.73;;;6.90;99.90;;;5.25;100.00;98225.94;5027255;28;20508;-72
2021/10/13 01:07:32;;;;;;;16.57;13.77;;;6.70;99.70;;;5.15;100.00;98236.03;5024898;28;20474;-71
2021/10/13 01:10:07;;;;;;;15.37;12.70;;;6.60;99.90;;;5.20;100.00;98227.47;5029446;28;20998;-71
2021/10/13 01:12:52;;;;;;;14.47;12.53;;;6.50;99.90;;;5.29;100.00;98237.16;5028122;28;20462;-70
2021/10/13 01:15:28;;;;;;;15.13;13.50;;;6.60;99.90;;;5.29;100.00;98226.44;5029101;28;20560;-70
2021/10/13 01:18:07;;;;;;;17.80;13.63;;;6.60;99.90;;;5.08;100.00;98233.25;5026964;28;20913;-70
2021/10/13 01:20:49;;;;;;;16.00;13.10;;;6.50;97.80;;;5.08;100.00;98238.59;5028966;28;20469;-70
2021/10/13 01:23:34;;;;;;;18.33;13.53;;;6.50;99.40;;;5.08;100.00;98240.44;5027622;28;20784;-71
2021/10/13 01:26:12;;;;;;;15.30;13.07;;;6.40;99.80;;;5.28;100.00;98245.34;5044214;28;20540;-71
2021/10/13 01:28:43;;;;;;;18.80;13.60;;;6.50;99.70;;;5.31;100.00;98250.38;5028791;28;21039;-70
2021/10/13 01:31:17;;;;;;;17.23;13.60;;;6.60;97.80;;;5.23;100.00;98251.22;5026658;28;21158;-71
2021/10/13 01:33:50;;;;;;;16.67;13.60;;;6.60;96.90;;;5.08;100.00;98257.34;5026255;28;20458;-71
2021/10/13 01:36:24;;;;;;;16.23;13.57;;;6.50;96.40;;;5.13;100.00;98274.72;5024877;28;20525;-72
2021/10/13 01:38:55;;;;;;;15.57;13.60;;;6.50;97.90;;;5.05;100.00;98268.38;5022074;28;20455;-71
2021/10/13 01:41:24;;;;;;;14.07;12.40;;;6.50;97.50;;;4.98;100.00;98275.47;5026013;28;20458;-71
2021/10/13 01:43:54;;;;;;;16.10;13.90;;;6.40;97.50;;;5.02;100.00;98279.44;5024552;28;21072;-71
2021/10/13 01:46:23;;;;;;;17.40;13.03;;;6.40;98.30;;;5.20;100.00;98284.56;5028985;28;20919;-71
2021/10/13 01:48:51;;;;;;;14.33;11.80;;;6.50;98.50;;;5.08;100.00;98277.94;5027840;28;20446;-71
2021/10/13 01:51:20;;;;;;;17.30;13.70;;;6.50;97.40;;;5.19;100.00;98285.59;5029497;28;20459;-72
2021/10/13 01:53:49;;;;;;;19.03;13.80;;;6.50;97.90;;;5.20;100.00;98292.63;5022648;28;20462;-72
2021/10/13 01:56:18;;;;;;;13.60;12.20;;;6.50;97.40;;;5.06;100.00;98290.66;5028651;28;20552;-72
2021/10/13 01:58:47;;;;;;;17.53;14.33;;;6.50;97.30;;;5.01;100.00;98299.22;5026366;28;21023;-71
2021/10/13 02:01:17;;;;;;;15.83;12.87;;;6.50;97.30;;;4.94;100.00;98298.25;5022396;28;20511;-71
2021/10/13 02:03:47;;;;;;;14.27;11.77;;;6.40;98.50;;;4.91;100.00;98293.22;5024039;28;20558;-72
2021/10/13 02:06:17;;;;;;;15.40;12.10;;;6.40;99.30;;;4.96;100.00;98301.56;5020710;28;20627;-71
2021/10/13 02:08:45;;;;;;;14.53;12.23;;;6.40;99.30;;;5.14;100.00;98309.38;5017147;28;20458;-72
2021/10/13 02:11:12;;;;;;;15.90;12.40;;;6.50;98.90;;;5.20;100.00;98313.19;5042075;28;20541;-70
2021/10/13 02:13:40;;;;;;;14.30;12.17;;;6.50;98.70;;;5.05;100.00;98303.19;5024128;28;20546;-70
2021/10/13 02:16:09;;;;;;;16.30;11.77;;;6.50;97.80;;;5.08;100.00;98310.06;5024665;28;20500;-76
2021/10/13 02:18:39;;;;;;;14.77;11.63;;;6.40;99.50;;;5.13;100.00;98314.91;5021052;28;20832;-87
2021/10/13 02:21:07;;;;;;;13.07;11.00;;;6.50;98.50;;;5.15;100.00;98323.59;5029062;28;20469;-87
2021/10/13 02:23:36;;;;;;;14.27;11.30;;;6.50;98.60;;;5.22;100.00;98308.50;5027978;28;20509;-86
2021/10/13 02:26:09;;;;;;;12.60;10.53;;;6.60;98.70;;;5.37;100.00;98324.69;5013907;28;21409;-87
2021/10/13 02:28:41;;;;;;;14.13;11.80;;;6.70;97.90;;;5.41;100.00;98325.19;5026495;28;20554;-89
2021/10/13 02:31:09;;;;;;;13.63;10.07;;;6.70;97.70;;;5.47;100.00;98311.94;5024066;28;20600;-86
2021/10/13 02:33:38;;;;;;;14.30;11.37;;;6.80;96.70;;;5.27;100.00;98330.25;5023486;28;20451;-86
2021/10/13 02:36:06;;;;;;;13.20;10.73;;;6.70;95.80;;;5.25;100.00;98332.28;5028213;28;20493;-87
2021/10/13 02:38:33;;;;;;;11.17;10.00;;;6.60;97.20;;;5.07;100.00;98330.66;5023053;28;20469;-85
2021/10/13 02:41:00;;;;;;;10.90;9.23;;;6.50;97.00;;;5.15;100.00;98337.00;5038818;28;20874;-85
2021/10/13 02:43:27;;;;;;;26.27;12.10;;;6.50;99.30;;;5.18;100.00;98336.66;5023123;28;20548;-84
2021/10/13 02:46:00;;;;;;;19.97;11.30;;;6.50;99.00;;;5.37;100.00;98341.59;5022058;28;20514;-83
2021/10/13 02:48:31;;;;;;;14.20;11.73;;;6.60;99.70;;;5.25;100.00;98343.81;5022707;28;20472;-84
2021/10/13 02:51:08;;;;;;;13.40;11.07;;;6.60;97.70;;;5.15;100.00;98347.72;5021509;28;20454;-84
2021/10/13 02:53:40;;;;;;;12.90;10.57;;;6.60;97.10;;;5.10;100.00;98337.50;5018703;28;20993;-84
2021/10/13 02:56:15;;;;;;;12.60;10.90;;;6.50;97.80;;;5.20;100.00;98351.56;5025229;28;20478;-84
2021/10/13 02:58:56;;;;;;;12.67;10.87;;;6.50;98.70;;;5.08;100.00;98353.78;5027134;28;20473;-85
2021/10/13 03:01:29;;;;;;;10.80;9.70;;;6.50;98.40;;;5.37;100.00;98362.22;5028546;28;20545;-84
2021/10/13 03:04:00;;;;;;;10.67;9.40;;;6.60;97.80;;;5.33;100.00;98364.38;5025192;28;20987;-85
2021/10/13 03:06:38;;;;;;;10.40;9.40;;;6.60;96.60;;;5.32;99.60;98362.72;5023209;28;20472;-84
2021/10/13 03:09:06;;;;;;;10.07;9.00;;;6.70;96.00;;;5.32;98.88;98370.75;5025571;28;20464;-85
2021/10/13 03:11:34;;;;;;;11.40;8.93;;;6.70;95.30;;;5.26;99.81;98360.75;5027964;28;20446;-84
2021/10/13 03:14:03;;;;;;;12.10;10.10;;;6.70;96.40;;;5.20;100.00;98367.63;5025261;28;20459;-81
2021/10/13 03:16:30;;;;;;;11.93;9.70;;;6.60;96.60;;;5.22;100.00;98370.97;5026056;28;20452;-84
2021/10/13 03:18:58;;;;;;;10.50;9.00;;;6.60;96.30;;;5.26;100.00;98371.47;5027614;28;20596;-85
2021/10/13 03:21:27;;;;;;;14.50;11.53;;;6.60;97.00;;;5.24;100.00;98370.81;5028865;28;20552;-85
2021/10/13 03:23:55;;;;;;;12.20;9.37;;;6.60;97.30;;;5.15;100.00;98367.28;5025192;28;20549;-84
2021/10/13 03:26:23;;;;;;;11.53;9.40;;;6.60;96.90;;;5.27;100.00;98381.16;5038970;28;20528;-83
2021/10/13 03:28:50;;;;;;;12.23;9.07;;;6.60;97.00;;;5.13;100.00;98381.88;5025938;28;20454;-83
2021/10/13 03:31:18;;;;;;;11.17;9.40;;;6.60;96.50;;;5.03;100.00;98376.72;5027500;28;20454;-85
2021/10/13 03:33:52;;;;;;;12.07;9.90;;;6.50;97.40;;;5.00;100.00;98379.72;5028398;28;20470;-85
2021/10/13 03:36:20;;;;;;;14.10;11.33;;;6.40;98.10;;;5.01;100.00;98376.06;5028352;28;20481;-82
2021/10/13 03:38:47;;;;;;;12.47;10.30;;;6.50;99.60;;;5.20;100.00;98377.50;5023533;28;20541;-82
2021/10/13 03:41:15;;;;;;;11.77;10.30;;;6.60;99.60;;;5.23;100.00;98377.13;5026001;28;20936;-82
2021/10/13 03:43:50;;;;;;;12.17;10.27;;;6.60;99.60;;;5.22;100.00;98380.81;5023136;28;20549;-84
2021/10/13 03:46:19;;;;;;;13.70;10.73;;;6.60;98.00;;;5.41;100.00;98389.50;5026676;28;20476;-84
2021/10/13 03:48:50;;;;;;;13.93;10.67;;;6.70;98.60;;;5.21;100.00;98389.88;5026831;28;20465;-82
2021/10/13 03:51:18;;;;;;;11.50;9.70;;;6.60;96.40;;;5.14;100.00;98391.59;5045610;28;20541;-83
2021/10/13 03:53:45;;;;;;;15.43;10.77;;;6.60;97.60;;;5.28;100.00;98396.22;5023147;28;20466;-84
2021/10/13 03:56:12;;;;;;;16.20;10.57;;;6.60;97.30;;;5.31;99.60;98366.41;5024331;28;20478;-84
2021/10/13 03:58:41;;;;;;;13.50;11.57;;;6.70;96.60;;;5.34;99.60;98392.84;5024705;28;20490;-84
2021/10/13 04:01:08;;;;;;;12.07;10.57;;;6.70;96.00;;;5.57;98.51;98384.06;5024791;28;20458;-84
2021/10/13 04:03:36;;;;;;;15.07;11.80;;;6.90;95.90;;;5.46;99.10;98392.50;5022939;28;20469;-83
2021/10/13 04:06:04;;;;;;;15.83;11.70;;;6.80;95.20;;;5.51;99.26;98390.13;5023902;28;20565;-83
2021/10/13 04:08:31;;;;;;;15.17;11.80;;;6.80;95.20;;;5.45;99.05;98401.53;5026788;28;20455;-83
2021/10/13 04:10:58;;;;;;;14.00;11.40;;;6.80;95.00;;;5.48;99.44;98401.19;5027644;28;20470;-82
2021/10/13 04:13:25;;;;;;;18.63;11.80;;;6.80;94.90;;;5.51;98.75;98395.47;5027256;28;20531;-82
2021/10/13 04:15:53;;;;;;;14.37;11.23;;;6.90;95.30;;;5.49;98.55;98394.81;5026304;28;20532;-82
2021/10/13 04:18:20;;;;;;;12.33;10.00;;;6.90;95.10;;;5.39;99.11;98400.38;5025671;28;20454;-82
2021/10/13 04:20:47;;;;;;;13.90;10.73;;;6.80;95.20;;;5.48;99.34;98395.81;5024745;28;20566;-82
2021/10/13 04:23:15;;;;;;;11.90;10.60;;;6.80;95.70;;;5.56;99.23;98398.50;5024791;28;20458;-82
2021/10/13 04:25:42;;;;;;;13.40;10.90;;;6.90;95.70;;;5.57;99.48;98397.47;5036393;28;20470;-85
2021/10/13 04:28:09;;;;;;;12.30;10.63;;;6.90;95.70;;;5.46;100.00;98395.16;5027235;28;20881;-85
2021/10/13 04:30:37;;;;;;;15.07;11.13;;;6.80;96.30;;;5.55;99.61;98412.06;5029054;28;20501;-85
2021/10/13 04:33:06;;;;;;;14.23;10.90;;;6.90;95.70;;;5.47;98.76;98405.72;5026339;28;20541;-84
2021/10/13 04:35:33;;;;;;;11.03;9.80;;;6.80;95.60;;;5.38;98.87;98401.38;5028234;28;20873;-84
2021/10/13 04:38:05;;;;;;;14.47;11.97;;;6.80;95.00;;;5.27;100.00;98405.28;5024006;28;20955;-85
2021/10/13 04:40:32;;;;;;;16.80;10.80;;;6.70;96.20;;;5.26;100.00;98414.34;5029963;28;20796;-85
2021/10/13 04:43:01;;;;;;;14.53;10.60;;;6.60;97.00;;;5.62;100.00;98410.38;5029487;28;20556;-83
2021/10/13 04:45:28;;;;;;;18.90;10.73;;;6.80;99.20;;;5.39;98.31;98408.41;5026608;28;20836;-82
2021/10/13 04:47:56;;;;;;;45.77;25.23;;;6.80;94.30;;;5.55;99.15;98418.25;5028005;28;20478;-82
2021/10/13 04:50:24;;;;;;;11.13;9.10;;;6.80;95.60;;;5.29;97.07;98413.13;5030570;28;20998;-82
2021/10/13 04:52:51;;;;;;;11.40;9.40;;;6.70;92.60;;;5.38;97.99;98420.16;5029316;28;20455;-80
2021/10/13 04:55:18;;;;;;;10.70;9.20;;;6.70;93.80;;;5.24;97.40;98416.34;5026883;28;20835;-83
2021/10/13 04:57:45;;;;;;;10.13;8.83;;;6.60;93.40;;;5.30;98.21;98422.84;5032004;28;20454;-87
2021/10/13 05:00:13;;;;;;;13.10;8.97;;;6.70;93.60;;;5.17;98.04;98418.88;5034175;28;20520;-88
2021/10/13 05:02:41;;;;;;;10.67;8.73;;;6.60;93.90;;;5.09;97.10;98440.31;5029935;28;20919;-83
2021/10/13 05:05:08;;;;;;;13.67;8.50;;;6.60;93.00;;;5.11;97.76;98438.28;5029181;28;21112;-83
2021/10/13 05:07:36;;;;;;;11.87;9.77;;;6.50;93.30;;;5.28;97.52;98443.63;5026489;28;20572;-83
2021/10/13 05:10:05;;;;;;;11.03;9.67;;;6.60;94.20;;;5.24;97.41;98457.34;5028718;28;20447;-84
2021/10/13 05:12:32;;;;;;;11.73;9.10;;;6.60;93.40;;;5.09;98.20;98451.88;5045516;28;20451;-83
2021/10/13 05:14:59;;;;;;;11.77;10.00;;;6.50;93.50;;;4.99;98.02;98451.19;5028485;28;21093;-83
2021/10/13 05:17:26;;;;;;;13.00;10.30;;;6.50;93.70;;;5.05;98.15;98455.06;5027494;28;20458;-86
2021/10/13 05:19:53;;;;;;;12.43;9.53;;;6.40;94.10;;;5.01;98.39;98465.25;5028731;28;20830;-86
2021/10/13 05:22:20;;;;;;;11.23;9.73;;;6.40;93.20;;;5.00;97.26;98463.59;5030412;28;20557;-84
2021/10/13 05:24:48;;;;;;;10.50;8.40;;;6.40;93.10;;;4.98;97.41;98465.59;5028176;28;20910;-84
2021/10/13 05:27:15;;;;;;;16.30;9.43;;;6.40;92.70;;;4.97;98.55;98471.97;5025016;28;20470;-83
2021/10/13 05:29:42;;;;;;;15.70;10.40;;;6.40;93.50;;;4.98;98.11;98457.56;5027004;28;20981;-85
2021/10/13 05:32:10;;;;;;;12.50;10.37;;;6.50;93.90;;;5.00;98.54;98471.63;5030984;28;20454;-84
2021/10/13 05:34:37;;;;;;;13.43;10.87;;;6.40;94.20;;;4.97;99.65;98483.50;5029216;28;20478;-82
2021/10/13 05:37:04;;;;;;;12.73;10.27;;;6.40;94.90;;;4.94;98.30;98481.16;5029903;28;20524;-83
2021/10/13 05:39:31;;;;;;;20.07;10.00;;;6.40;93.90;;;5.10;97.69;98479.47;5023945;28;20994;-84
2021/10/13 05:41:59;;;;;;;13.20;11.90;;;6.50;93.50;;;5.12;98.46;98473.97;5028556;28;20465;-87
2021/10/13 05:44:26;;;;;;;15.90;12.10;;;6.50;94.50;;;5.12;98.11;98476.63;5029474;28;20485;-89
2021/10/13 05:46:53;;;;;;;17.10;11.67;;;6.50;94.10;;;5.30;98.59;98484.47;5025470;28;20474;-86
2021/10/13 05:49:20;;;;;;;13.50;10.60;;;6.60;94.90;;;5.49;98.43;98505.56;5025920;28;20458;-86
2021/10/13 05:51:47;;;;;;;14.97;11.53;;;6.80;94.60;;;5.51;98.10;98506.22;5043045;28;20954;-87
2021/10/13 05:54:14;;;;;;;13.70;10.73;;;6.80;93.90;;;5.45;97.20;98512.25;5027639;28;20541;-89
2021/10/13 05:56:42;;;;;;;11.60;10.40;;;6.80;93.60;;;5.37;97.84;98512.28;5032602;28;20560;-86
2021/10/13 05:59:10;;;;;;;13.90;10.17;;;6.70;93.70;;;5.44;97.25;98515.94;5031876;28;20975;-87
2021/10/13 06:01:37;;;;;;;14.47;11.60;;;6.80;93.00;;;5.25;97.61;98525.19;5028040;28;20520;-83
2021/10/13 06:04:05;;;;;;;13.03;11.43;;;6.70;93.10;;;5.24;98.02;98534.22;5027479;28;20971;-84
2021/10/13 06:06:32;;;;;;;15.37;11.90;;;6.60;93.80;;;5.38;97.87;98525.50;5023488;28;20516;-80
2021/10/13 06:08:59;;;;;;;15.10;11.27;;;6.70;93.90;;;5.63;96.47;98528.13;5023555;28;20470;-83
2021/10/13 06:11:26;;;;;;;13.33;10.40;;;6.90;93.70;;;5.82;96.02;98531.44;5027627;28;20458;-81
2021/10/13 06:13:53;;;;;;;12.77;11.47;;;7.10;92.90;;;5.89;94.41;98535.09;5026145;28;20561;-82
2021/10/13 06:16:23;;;;;;;12.27;11.07;;;7.20;91.80;;;5.86;93.85;98539.97;5021350;28;20498;-81
2021/10/13 06:18:50;;;;;;;15.73;11.10;;;7.20;91.10;;;5.81;94.42;98545.84;5020661;28;20556;-81
2021/10/13 06:21:18;;;;;;;11.70;10.47;;;7.10;91.10;;;5.68;94.10;98555.25;5025564;28;20516;-80
2021/10/13 06:23:45;;;;;;;13.10;11.70;;;7.00;90.90;;;5.72;94.66;98554.94;5023299;28;20458;-81
2021/10/13 06:26:12;;;;;;;11.63;10.00;;;7.00;91.60;;;5.72;93.80;98554.94;5024646;28;20518;-79
2021/10/13 06:28:39;;;;;;;12.37;11.10;;;7.10;90.90;;;5.73;94.26;98564.66;5023721;28;20528;-78
2021/10/13 06:31:07;;;;;;;12.67;10.40;;;7.10;91.00;;;6.03;94.06;98562.25;5024853;28;20545;-74
2021/10/13 06:33:36;;;;;;;12.03;10.83;;;7.30;91.10;;;5.91;93.09;98557.22;5018286;28;20454;-72
2021/10/13 06:36:05;;;;;;;11.53;10.33;;;7.30;90.50;;;6.04;93.02;98571.97;5021459;28;20520;-72
2021/10/13 06:38:32;;;;;;;14.40;10.63;;;7.30;90.20;;;6.18;93.01;98567.72;5010267;28;20457;-70
2021/10/13 06:40:59;;;;;;;12.47;9.10;;;7.40;90.30;;;6.12;91.45;98563.88;5023952;28;20974;-71
2021/10/13 06:43:27;;;;;;;10.27;9.03;;;7.40;88.80;;;6.11;91.22;98578.31;5020142;28;20558;-72
2021/10/13 06:45:55;;;;;;;8.00;7.03;;;7.50;88.00;;;6.01;90.74;98577.66;5018971;28;20498;-72
2021/10/13 06:48:22;;;;;;;11.30;9.13;;;7.40;86.90;;;5.94;91.29;98572.97;5021204;28;21006;-72
2021/10/13 06:50:51;;;;;;;15.13;10.27;;;7.30;87.30;;;6.17;92.11;98591.06;5021319;28;20469;-71
2021/10/13 06:53:18;;;;;;;13.03;10.87;;;7.40;89.10;;;6.12;91.80;98589.91;5014833;28;20457;-71
2021/10/13 06:55:45;;;;;;;13.20;11.10;;;7.40;88.70;;;5.90;93.33;98581.53;5015104;28;20474;-72
2021/10/13 06:58:12;;;;;;;16.50;11.13;;;7.30;89.80;;;5.82;93.42;98588.59;5017308;28;21020;-72
2021/10/13 07:00:40;;;;;;;15.90;10.93;;;7.20;90.20;;;5.96;93.15;98592.41;5020945;28;20491;-72
2021/10/13 07:03:07;;;;;;;12.73;10.97;;;7.30;90.50;;;6.07;92.13;98601.13;5016924;28;20520;-71
2021/10/13 07:05:34;;;;;;;13.33;10.17;;;7.30;89.50;;;6.10;90.87;98600.78;5022732;28;20474;-72
2021/10/13 07:08:04;;;;;;;12.13;10.50;;;7.50;87.80;;;6.05;90.77;98597.78;5022644;28;20609;-71
2021/10/13 07:10:31;;;;;;;13.23;10.17;;;7.40;87.50;;;6.26;89.77;98602.59;5025105;28;20543;-82
2021/10/13 07:12:58;;;;;;;11.50;9.90;;;7.50;86.50;;;6.27;89.56;98606.09;5021315;28;20474;-78
2021/10/13 07:15:25;;;;;;;11.23;10.20;;;7.60;85.90;;;6.55;88.84;98606.50;5021036;28;21189;-78
2021/10/13 07:17:52;;;;;;;11.23;10.03;;;7.80;85.10;;;6.43;87.99;98600.66;5018494;28;20458;-77
2021/10/13 07:20:19;;;;;;;11.67;10.27;;;7.70;83.40;;;6.48;88.34;98598.31;5023804;28;20490;-78
2021/10/13 07:22:46;;;;;;;12.07;10.20;;;7.80;83.90;;;6.42;88.06;98593.63;5023357;28;20454;-78
2021/10/13 07:25:19;;;;;;;11.57;10.37;;;7.80;83.60;;;6.36;88.66;98591.66;5021656;28;20513;-76
2021/10/13 07:27:46;;;;;;;11.50;9.90;;;7.70;84.30;;;6.47;88.60;98599.31;5015504;28;20474;-78
2021/10/13 07:30:17;;;;;;;11.80;10.60;;;7.70;84.50;;;6.30;89.04;98603.09;5023164;28;20942;-78
2021/10/13 07:32:44;;;;;;;11.27;10.17;;;7.60;84.50;;;6.30;89.40;98603.09;5022226;28;20513;-77
2021/10/13 07:35:11;;;;;;;10.40;9.07;;;7.60;85.30;;;6.49;88.94;98613.41;5017646;28;20462;-76
2021/10/13 07:37:38;;;;;;;11.03;9.90;;;7.70;85.00;;;6.43;87.66;98581.88;5029307;28;20458;-78
2021/10/13 07:40:07;;;;;;;10.70;9.60;;;7.90;83.70;;;6.78;87.34;98611.06;5019092;28;20472;-75
2021/10/13 07:42:35;;;;;;;13.00;10.60;;;8.00;83.50;;;6.95;87.79;98611.81;5019788;28;20612;-78
2021/10/13 07:45:02;;;;;;;10.90;9.77;;;8.20;84.10;;;7.03;84.73;98619.81;5014778;28;20510;-77
2021/10/13 07:47:29;;;;;;;12.10;10.90;;;8.30;81.10;;;7.17;84.16;98620.06;5033179;28;20505;-78
2021/10/13 07:49:56;;;;;;;10.67;9.67;;;8.50;79.90;;;7.14;84.67;98626.66;5018098;28;20480;-76
2021/10/13 07:52:24;;;;;;;11.03;9.60;;;8.60;79.70;;;7.28;83.78;98622.34;5016591;28;20450;-76
2021/10/13 07:54:51;;;;;;;10.90;8.83;;;8.70;79.00;;;7.52;82.27;98625.88;5021086;28;20490;-75
2021/10/13 07:57:18;;;;;;;10.47;8.70;;;8.90;78.00;;;7.58;82.36;98617.06;5020956;28;20593;-77
2021/10/13 07:59:46;;;;;;;10.97;9.87;;;8.90;78.10;;;7.80;82.18;98630.66;5017766;28;20459;-77
2021/10/13 08:02:13;;;;;;;9.47;8.43;;;9.00;78.00;;;7.42;82.41;98628.78;5019566;28;20542;-74
2021/10/13 08:04:40;;;;;;;11.97;10.13;;;8.80;77.30;;;7.23;84.09;98635.50;5018579;28;20488;-76
2021/10/13 08:07:07;;;;;;;13.03;10.60;;;8.60;78.90;;;7.02;85.98;98638.81;5015113;28;21033;-77
2021/10/13 08:09:34;;;;;;;12.87;10.33;;;8.40;79.90;;;7.20;84.37;98636.69;5017171;28;20553;-75
2021/10/13 08:12:01;;;;;;;11.67;10.17;;;8.40;79.90;;;7.03;84.08;98638.63;5019911;28;20454;-76
2021/10/13 08:14:29;;;;;;;11.53;8.93;;;8.30;79.30;;;6.90;84.18;98636.53;5027216;28;20478;-74
2021/10/13 08:16:58;;;;;;;12.43;9.40;;;8.30;79.10;;;7.08;84.28;98638.94;5022202;28;20542;-75
2021/10/13 08:19:25;;;;;;;11.50;9.00;;;8.30;79.40;;;7.02;83.96;98647.69;5025147;28;20465;-75
2021/10/13 08:21:52;;;;;;;8.93;8.00;;;8.40;78.90;;;7.17;82.61;98642.41;5034422;28;20454;-75
2021/10/13 08:24:20;;;;;;;10.60;8.47;;;8.40;78.20;;;7.53;81.17;98645.50;5026716;28;20600;-76
2021/10/13 08:26:47;;;;;;;9.53;8.53;;;8.60;77.20;;;7.71;80.13;98643.34;5028113;28;20599;-76
2021/10/13 08:29:14;;;;;;;10.00;9.00;;;8.90;76.30;;;7.75;80.20;98647.38;5020875;28;20474;-75
2021/10/13 08:31:41;;;;;;;12.00;9.27;;;9.00;76.00;;;7.77;79.92;98644.47;5029448;28;20512;-75
2021/10/13 08:34:09;;;;;;;9.60;7.97;;;9.10;75.50;;;7.75;80.26;98649.19;5025594;28;20471;-75
2021/10/13 08:36:36;;;;;;;11.70;9.70;;;9.10;75.20;;;7.68;80.10;98649.09;5020046;28;20613;-75
2021/10/13 08:39:04;;;;;;;10.30;9.20;;;9.00;75.20;;;7.86;79.59;98645.22;5018284;28;20549;-74
2021/10/13 08:41:31;;;;;;;9.97;8.80;;;9.00;75.50;;;7.77;80.89;98649.84;5018370;28;20546;-74
2021/10/13 08:43:58;;;;;;;9.47;8.57;;;9.10;75.70;;;7.99;81.01;98655.38;5023977;28;20520;-85
2021/10/13 08:46:25;;;;;;;8.37;7.57;;;9.20;75.90;;;8.11;79.35;98664.66;5028201;28;20474;-84
2021/10/13 08:48:52;;;;;;;7.05;6.28;;;9.30;74.80;;;8.14;77.71;98658.94;5028391;28;20338;-81
2021/10/13 08:51:21;;;;;;;8.30;7.00;;;9.40;73.70;;;8.22;76.96;98660.69;5024561;28;20211;-82
2021/10/13 08:53:48;;;;;;;9.50;6.20;;;9.50;73.00;;;8.41;75.97;98663.88;5022372;28;20470;-83
2021/10/13 08:56:15;;;;;;;7.07;6.10;;;9.60;71.90;;;8.34;75.92;98631.47;5023972;28;20486;-81
2021/10/13 08:58:42;;;;;;;8.10;7.27;;;9.70;71.80;;;8.50;76.16;98662.78;5039245;28;20493;-82
2021/10/13 09:01:13;;;;;;;7.70;6.37;;;9.80;71.50;;;8.90;74.76;98662.47;5025372;28;20989;-82
2021/10/13 09:03:42;;;;;;;6.30;5.70;;;10.10;70.10;;;8.59;74.57;98660.84;5028922;28;20557;-82
2021/10/13 09:06:19;;;;;;;6.67;6.07;;;10.00;69.40;;;8.50;75.25;98657.41;5024643;28;20473;-82
2021/10/13 09:09:06;;;;;;;8.50;6.40;;;9.90;69.90;;;8.43;74.62;98661.81;5023072;28;20478;-81
2021/10/13 09:11:37;;;;;;;7.00;6.30;;;9.80;69.30;;;8.31;74.75;98643.41;5024413;28;20477;-82
2021/10/13 09:14:15;;;;;;;6.70;6.10;;;9.60;69.60;;;8.68;75.44;98656.19;5025079;28;20458;-82
2021/10/13 09:16:59;;;;;;;8.07;6.93;;;9.80;70.10;;;9.33;73.01;98657.16;5019337;28;20469;-81
2021/10/13 09:19:29;;;;;;;6.67;5.97;;;10.30;68.30;;;9.59;72.09;98654.91;5018261;28;20458;-82
2021/10/13 09:21:58;;;;;;;7.00;6.30;;;10.60;67.60;;;9.33;73.14;98657.16;5027249;28;21020;-82
2021/10/13 09:24:29;;;;;;;8.13;6.70;;;10.70;67.10;;;9.07;72.92;98652.28;5021175;28;20478;-80
2021/10/13 09:26:58;;;;;;;7.80;7.10;;;10.50;66.80;;;8.91;74.01;98664.13;5023961;28;21590;-80
2021/10/13 09:29:26;;;;;;;9.37;7.40;;;10.20;67.40;;;8.74;74.84;98664.34;5027350;28;20470;-83
2021/10/13 09:32:02;;;;;;;7.13;6.53;;;10.00;67.70;;;8.87;74.91;98662.81;5036165;28;20577;-84
2021/10/13 09:34:30;;;;;;;10.70;6.43;;;10.10;68.40;;;9.04;71.90;98658.91;5028518;28;20955;-82
2021/10/13 09:37:00;;;;;;;7.53;6.73;;;10.30;66.60;;;9.20;71.70;98651.59;5027814;28;20509;-82
2021/10/13 09:39:31;;;;;;;9.83;6.23;;;10.50;66.40;;;9.90;68.31;98649.13;5037409;28;20541;-81
2021/10/13 09:42:07;;;;;;;8.33;5.40;;;11.00;65.20;;;9.76;68.85;98656.28;5027574;28;20505;-82
2021/10/13 09:44:39;;;;;;;8.17;6.10;;;11.10;64.20;;;10.07;68.63;98651.53;5018458;28;20566;-81
2021/10/13 09:47:10;;;;;;;5.73;5.23;;;11.40;64.10;;;10.14;67.05;98635.38;5026509;28;21026;-82
2021/10/13 09:49:40;;;;;;;6.47;4.87;;;11.50;62.30;;;10.27;65.70;98642.75;5028120;28;20579;-81
2021/10/13 09:52:11;;;;;;;4.53;3.93;;;11.60;61.40;;;10.11;66.82;98651.97;5019560;28;20466;-82
2021/10/13 09:54:42;;;;;;;5.57;4.70;;;11.40;61.90;;;9.38;69.37;98634.16;5023393;28;20475;-81
2021/10/13 09:57:22;;;;;;;6.00;4.90;;;11.00;62.50;;;8.94;71.90;98658.34;5025930;28;20521;-81
2021/10/13 10:00:08;;;;;;;6.10;5.03;;;10.40;63.70;;;8.26;72.52;98653.91;5021375;28;20458;-82
2021/10/13 10:02:38;;;;;;;6.80;5.40;;;9.70;64.70;;;8.04;73.90;98659.19;5023314;28;20501;-81
2021/10/13 10:05:10;;;;;;;5.83;4.70;;;9.40;65.90;;;7.99;74.06;98634.69;5017674;28;20482;-84
2021/10/13 10:07:47;;;;;;;6.77;5.50;;;9.40;66.00;;;8.44;72.87;98653.56;5023135;28;20770;-84
2021/10/13 10:10:20;;;;;;;5.83;4.00;;;9.60;66.20;;;8.58;70.29;98648.38;5025226;28;20477;-85
2021/10/13 10:13:02;;;;;;;4.77;4.27;;;9.80;64.60;;;8.57;69.52;98638.59;5025179;28;20549;-85
2021/10/13 10:15:33;;;;;;;6.37;4.80;;;10.00;62.80;;;8.62;69.49;98665.84;5036324;28;21049;-86
2021/10/13 10:18:02;;;;;;;4.43;4.03;;;10.00;62.10;;;8.67;68.63;98666.09;5024891;28;20946;-86
2021/10/13 10:20:39;;;;;;;3.53;3.23;;;10.00;61.90;;;8.19;68.75;98658.38;5019830;28;20451;-86
2021/10/13 10:23:32;;;;;;;6.10;3.50;;;9.60;62.10;;;8.13;69.98;98667.19;5017060;28;20520;-85
2021/10/13 10:26:33;;;;;;;5.30;3.93;;;9.50;62.60;;;8.35;69.38;98657.34;5020721;28;20554;-85
2021/10/13 10:29:03;;;;;;;3.93;3.63;;;9.50;62.60;;;8.72;69.42;98665.53;5019717;28;20469;-85